sensor_id;sensor_type;location;lat;lon;timestamp;P1;durP1;ratioP1;P2;durP2;ratioP2
5199;SDS011;2619;47.868;11.892;2023-05-29T00:00:12;12.33;;;5.00;;
5199;SDS011;2619;47.868;11.892;2023-05-29T00:02:41;7.17;;;5.27;;
5199;SDS011;2619;47.868;11.892;2023-05-29T00:05:09;6.80;;;4.80;;
5199;SDS011;2619;47.868;11.892;2023-05-29T00:07:36;8.83;;;5.50;;
5199;SDS011;2619;47.868;11.892;2023-05-29T00:10:02;8.23;;;5.20;;
5199;SDS011;2619;47.868;11.892;2023-05-29T00:12:29;10.43;;;5.53;;
5199;SDS011;2619;47.868;11.892;2023-05-29T00:14:54;9.40;;;4.67;;
5199;SDS011;2619;47.868;11.892;2023-05-29T00:17:20;8.37;;;5.17;;
5199;SDS011;2619;47.868;11.892;2023-05-29T00:19:46;9.40;;;5.57;;
5199;SDS011;2619;47.868;11.892;2023-05-29T00:22:12;10.30;;;5.50;;
5199;SDS011;2619;47.868;11.892;2023-05-29T00:24:38;6.90;;;4.90;;
5199;SDS011;2619;47.868;11.892;2023-05-29T00:27:03;8.97;;;5.37;;
5199;SDS011;2619;47.868;11.892;2023-05-29T00:29:29;7.73;;;5.33;;
5199;SDS011;2619;47.868;11.892;2023-05-29T00:31:55;8.70;;;4.90;;
5199;SDS011;2619;47.868;11.892;2023-05-29T00:34:21;7.40;;;4.60;;
5199;SDS011;2619;47.868;11.892;2023-05-29T00:36:51;5.90;;;4.60;;
5199;SDS011;2619;47.868;11.892;2023-05-29T00:39:17;8.27;;;5.20;;
5199;SDS011;2619;47.868;11.892;2023-05-29T00:41:42;9.20;;;5.13;;
5199;SDS011;2619;47.868;11.892;2023-05-29T00:44:08;10.30;;;5.60;;
5199;SDS011;2619;47.868;11.892;2023-05-29T00:46:34;8.13;;;5.10;;
5199;SDS011;2619;47.868;11.892;2023-05-29T00:49:00;12.90;;;5.50;;
5199;SDS011;2619;47.868;11.892;2023-05-29T00:51:27;8.33;;;5.60;;
5199;SDS011;2619;47.868;11.892;2023-05-29T00:53:54;8.10;;;5.13;;
5199;SDS011;2619;47.868;11.892;2023-05-29T00:56:20;9.27;;;5.53;;
5199;SDS011;2619;47.868;11.892;2023-05-29T00:58:47;9.43;;;5.80;;
5199;SDS011;2619;47.868;11.892;2023-05-29T01:01:15;7.53;;;4.93;;
5199;SDS011;2619;47.868;11.892;2023-05-29T01:03:42;7.73;;;5.47;;
5199;SDS011;2619;47.868;11.892;2023-05-29T01:06:08;9.93;;;5.43;;
5199;SDS011;2619;47.868;11.892;2023-05-29T01:08:35;7.30;;;4.67;;
5199;SDS011;2619;47.868;11.892;2023-05-29T01:11:05;11.70;;;5.10;;
5199;SDS011;2619;47.868;11.892;2023-05-29T01:13:46;9.53;;;5.60;;
5199;SDS011;2619;47.868;11.892;2023-05-29T01:16:21;7.60;;;5.27;;
5199;SDS011;2619;47.868;11.892;2023-05-29T01:24:26;7.80;;;4.90;;
5199;SDS011;2619;47.868;11.892;2023-05-29T01:27:05;9.73;;;5.37;;
5199;SDS011;2619;47.868;11.892;2023-05-29T01:29:39;8.67;;;4.93;;
5199;SDS011;2619;47.868;11.892;2023-05-29T01:32:07;9.13;;;4.63;;
5199;SDS011;2619;47.868;11.892;2023-05-29T01:34:34;9.60;;;4.60;;
5199;SDS011;2619;47.868;11.892;2023-05-29T01:36:59;9.07;;;5.20;;
5199;SDS011;2619;47.868;11.892;2023-05-29T01:39:25;14.33;;;4.90;;
5199;SDS011;2619;47.868;11.892;2023-05-29T01:41:52;7.97;;;4.33;;
5199;SDS011;2619;47.868;11.892;2023-05-29T01:44:19;7.73;;;4.73;;
5199;SDS011;2619;47.868;11.892;2023-05-29T01:46:46;10.10;;;5.10;;
5199;SDS011;2619;47.868;11.892;2023-05-29T01:49:12;6.90;;;4.30;;
5199;SDS011;2619;47.868;11.892;2023-05-29T01:51:40;11.50;;;4.77;;
5199;SDS011;2619;47.868;11.892;2023-05-29T01:54:06;6.80;;;4.40;;
5199;SDS011;2619;47.868;11.892;2023-05-29T01:56:32;12.60;;;4.70;;
5199;SDS011;2619;47.868;11.892;2023-05-29T01:58:58;9.00;;;5.27;;
5199;SDS011;2619;47.868;11.892;2023-05-29T02:01:25;8.70;;;5.70;;
5199;SDS011;2619;47.868;11.892;2023-05-29T02:03:51;8.17;;;4.83;;
5199;SDS011;2619;47.868;11.892;2023-05-29T02:06:17;12.13;;;5.43;;
5199;SDS011;2619;47.868;11.892;2023-05-29T02:08:42;9.00;;;5.40;;
5199;SDS011;2619;47.868;11.892;2023-05-29T02:11:08;7.63;;;5.13;;
5199;SDS011;2619;47.868;11.892;2023-05-29T02:13:34;8.40;;;5.17;;
5199;SDS011;2619;47.868;11.892;2023-05-29T02:16:00;10.33;;;5.63;;
5199;SDS011;2619;47.868;11.892;2023-05-29T02:18:25;11.67;;;5.93;;
5199;SDS011;2619;47.868;11.892;2023-05-29T02:20:51;8.67;;;5.77;;
5199;SDS011;2619;47.868;11.892;2023-05-29T02:23:17;8.97;;;6.20;;
5199;SDS011;2619;47.868;11.892;2023-05-29T02:25:44;8.53;;;5.77;;
5199;SDS011;2619;47.868;11.892;2023-05-29T02:28:10;8.90;;;5.63;;
5199;SDS011;2619;47.868;11.892;2023-05-29T02:30:35;9.03;;;5.20;;
5199;SDS011;2619;47.868;11.892;2023-05-29T02:33:01;10.37;;;6.13;;
5199;SDS011;2619;47.868;11.892;2023-05-29T02:35:26;8.53;;;5.53;;
5199;SDS011;2619;47.868;11.892;2023-05-29T02:37:52;13.37;;;6.17;;
5199;SDS011;2619;47.868;11.892;2023-05-29T02:40:18;8.40;;;5.47;;
5199;SDS011;2619;47.868;11.892;2023-05-29T02:42:45;12.43;;;5.70;;
5199;SDS011;2619;47.868;11.892;2023-05-29T02:45:11;9.07;;;5.90;;
5199;SDS011;2619;47.868;11.892;2023-05-29T02:47:37;10.50;;;6.13;;
5199;SDS011;2619;47.868;11.892;2023-05-29T02:50:03;11.03;;;5.67;;
5199;SDS011;2619;47.868;11.892;2023-05-29T02:52:30;9.73;;;6.40;;
5199;SDS011;2619;47.868;11.892;2023-05-29T02:54:56;9.07;;;6.37;;
5199;SDS011;2619;47.868;11.892;2023-05-29T02:57:22;10.70;;;5.80;;
5199;SDS011;2619;47.868;11.892;2023-05-29T02:59:48;8.97;;;5.80;;
5199;SDS011;2619;47.868;11.892;2023-05-29T03:02:14;9.23;;;5.20;;
5199;SDS011;2619;47.868;11.892;2023-05-29T03:04:39;6.90;;;4.93;;
5199;SDS011;2619;47.868;11.892;2023-05-29T03:07:05;10.00;;;5.13;;
5199;SDS011;2619;47.868;11.892;2023-05-29T03:09:31;7.43;;;5.50;;
5199;SDS011;2619;47.868;11.892;2023-05-29T03:11:57;11.00;;;5.20;;
5199;SDS011;2619;47.868;11.892;2023-05-29T03:14:23;9.13;;;4.50;;
5199;SDS011;2619;47.868;11.892;2023-05-29T03:16:48;9.63;;;4.93;;
5199;SDS011;2619;47.868;11.892;2023-05-29T03:19:15;8.70;;;5.37;;
5199;SDS011;2619;47.868;11.892;2023-05-29T03:21:41;9.27;;;5.30;;
5199;SDS011;2619;47.868;11.892;2023-05-29T03:24:06;8.80;;;5.87;;
5199;SDS011;2619;47.868;11.892;2023-05-29T03:26:32;10.23;;;5.87;;
5199;SDS011;2619;47.868;11.892;2023-05-29T03:28:57;11.33;;;6.60;;
5199;SDS011;2619;47.868;11.892;2023-05-29T03:31:23;10.37;;;5.90;;
5199;SDS011;2619;47.868;11.892;2023-05-29T03:33:49;9.30;;;6.00;;
5199;SDS011;2619;47.868;11.892;2023-05-29T03:36:14;15.27;;;7.60;;
5199;SDS011;2619;47.868;11.892;2023-05-29T03:38:42;11.37;;;6.37;;
5199;SDS011;2619;47.868;11.892;2023-05-29T03:41:08;9.27;;;5.87;;
5199;SDS011;2619;47.868;11.892;2023-05-29T03:43:33;10.57;;;6.43;;
5199;SDS011;2619;47.868;11.892;2023-05-29T03:45:59;17.93;;;7.13;;
5199;SDS011;2619;47.868;11.892;2023-05-29T03:48:25;10.73;;;7.50;;
5199;SDS011;2619;47.868;11.892;2023-05-29T03:50:50;9.30;;;5.80;;
5199;SDS011;2619;47.868;11.892;2023-05-29T03:53:16;14.03;;;7.43;;
5199;SDS011;2619;47.868;11.892;2023-05-29T03:55:42;14.23;;;8.83;;
5199;SDS011;2619;47.868;11.892;2023-05-29T03:58:07;16.37;;;11.00;;
5199;SDS011;2619;47.868;11.892;2023-05-29T04:00:33;14.83;;;10.37;;
5199;SDS011;2619;47.868;11.892;2023-05-29T04:02:59;10.97;;;6.77;;
5199;SDS011;2619;47.868;11.892;2023-05-29T04:05:24;8.53;;;6.10;;
5199;SDS011;2619;47.868;11.892;2023-05-29T04:07:50;10.17;;;5.57;;
5199;SDS011;2619;47.868;11.892;2023-05-29T04:10:16;8.43;;;6.47;;
5199;SDS011;2619;47.868;11.892;2023-05-29T04:12:42;9.00;;;6.87;;
5199;SDS011;2619;47.868;11.892;2023-05-29T04:15:08;10.70;;;7.50;;
5199;SDS011;2619;47.868;11.892;2023-05-29T04:17:34;12.23;;;7.13;;
5199;SDS011;2619;47.868;11.892;2023-05-29T04:19:59;10.97;;;5.77;;
5199;SDS011;2619;47.868;11.892;2023-05-29T04:22:30;11.77;;;6.77;;
5199;SDS011;2619;47.868;11.892;2023-05-29T04:24:56;9.90;;;6.93;;
5199;SDS011;2619;47.868;11.892;2023-05-29T04:27:22;8.93;;;5.80;;
5199;SDS011;2619;47.868;11.892;2023-05-29T04:29:47;10.53;;;5.47;;
5199;SDS011;2619;47.868;11.892;2023-05-29T04:32:13;13.87;;;5.50;;
5199;SDS011;2619;47.868;11.892;2023-05-29T04:34:39;9.10;;;5.10;;
5199;SDS011;2619;47.868;11.892;2023-05-29T04:37:05;9.40;;;4.60;;
5199;SDS011;2619;47.868;11.892;2023-05-29T04:39:31;7.07;;;4.20;;
5199;SDS011;2619;47.868;11.892;2023-05-29T04:41:57;8.53;;;4.53;;
5199;SDS011;2619;47.868;11.892;2023-05-29T04:44:23;7.23;;;4.10;;
5199;SDS011;2619;47.868;11.892;2023-05-29T04:46:51;8.90;;;4.70;;
5199;SDS011;2619;47.868;11.892;2023-05-29T04:49:17;6.50;;;4.50;;
5199;SDS011;2619;47.868;11.892;2023-05-29T04:51:44;6.53;;;4.37;;
5199;SDS011;2619;47.868;11.892;2023-05-29T04:54:10;6.07;;;4.53;;
5199;SDS011;2619;47.868;11.892;2023-05-29T04:56:36;8.03;;;4.13;;
5199;SDS011;2619;47.868;11.892;2023-05-29T04:59:02;6.53;;;4.17;;
5199;SDS011;2619;47.868;11.892;2023-05-29T05:01:28;6.30;;;4.80;;
5199;SDS011;2619;47.868;11.892;2023-05-29T05:03:54;6.70;;;4.00;;
5199;SDS011;2619;47.868;11.892;2023-05-29T05:06:21;7.00;;;4.40;;
5199;SDS011;2619;47.868;11.892;2023-05-29T05:08:47;7.17;;;4.60;;
5199;SDS011;2619;47.868;11.892;2023-05-29T05:11:12;7.87;;;4.57;;
5199;SDS011;2619;47.868;11.892;2023-05-29T05:13:39;6.13;;;4.20;;
5199;SDS011;2619;47.868;11.892;2023-05-29T05:16:05;7.67;;;3.90;;
5199;SDS011;2619;47.868;11.892;2023-05-29T05:18:30;5.80;;;3.60;;
5199;SDS011;2619;47.868;11.892;2023-05-29T05:20:56;4.90;;;3.60;;
5199;SDS011;2619;47.868;11.892;2023-05-29T05:23:22;6.50;;;4.60;;
5199;SDS011;2619;47.868;11.892;2023-05-29T05:25:47;5.80;;;4.10;;
5199;SDS011;2619;47.868;11.892;2023-05-29T05:28:13;4.93;;;3.37;;
5199;SDS011;2619;47.868;11.892;2023-05-29T05:30:38;5.60;;;3.80;;
5199;SDS011;2619;47.868;11.892;2023-05-29T05:33:04;6.23;;;4.00;;
5199;SDS011;2619;47.868;11.892;2023-05-29T05:35:29;7.43;;;4.50;;
5199;SDS011;2619;47.868;11.892;2023-05-29T05:37:55;6.70;;;4.07;;
5199;SDS011;2619;47.868;11.892;2023-05-29T05:40:23;8.57;;;4.27;;
5199;SDS011;2619;47.868;11.892;2023-05-29T05:42:49;8.47;;;4.10;;
5199;SDS011;2619;47.868;11.892;2023-05-29T05:45:15;8.13;;;4.60;;
5199;SDS011;2619;47.868;11.892;2023-05-29T05:47:41;5.50;;;3.80;;
5199;SDS011;2619;47.868;11.892;2023-05-29T05:50:06;6.40;;;4.23;;
5199;SDS011;2619;47.868;11.892;2023-05-29T05:52:32;8.87;;;5.00;;
5199;SDS011;2619;47.868;11.892;2023-05-29T05:54:58;6.47;;;4.00;;
5199;SDS011;2619;47.868;11.892;2023-05-29T05:57:24;6.60;;;3.80;;
5199;SDS011;2619;47.868;11.892;2023-05-29T05:59:50;5.13;;;3.50;;
5199;SDS011;2619;47.868;11.892;2023-05-29T06:02:16;8.10;;;4.60;;
5199;SDS011;2619;47.868;11.892;2023-05-29T06:04:41;8.40;;;5.10;;
5199;SDS011;2619;47.868;11.892;2023-05-29T06:07:08;9.43;;;3.73;;
5199;SDS011;2619;47.868;11.892;2023-05-29T06:09:33;5.20;;;3.80;;
5199;SDS011;2619;47.868;11.892;2023-05-29T06:11:59;7.43;;;4.20;;
5199;SDS011;2619;47.868;11.892;2023-05-29T06:14:25;7.13;;;4.37;;
5199;SDS011;2619;47.868;11.892;2023-05-29T06:16:51;6.43;;;4.20;;
5199;SDS011;2619;47.868;11.892;2023-05-29T06:19:16;10.07;;;4.53;;
5199;SDS011;2619;47.868;11.892;2023-05-29T06:21:42;6.50;;;4.27;;
5199;SDS011;2619;47.868;11.892;2023-05-29T06:24:07;6.77;;;3.70;;
5199;SDS011;2619;47.868;11.892;2023-05-29T06:26:33;5.53;;;4.20;;
5199;SDS011;2619;47.868;11.892;2023-05-29T06:29:01;5.70;;;4.40;;
5199;SDS011;2619;47.868;11.892;2023-05-29T06:31:27;5.40;;;3.87;;
5199;SDS011;2619;47.868;11.892;2023-05-29T06:33:53;6.37;;;4.20;;
5199;SDS011;2619;47.868;11.892;2023-05-29T06:36:19;5.90;;;4.37;;
5199;SDS011;2619;47.868;11.892;2023-05-29T06:38:45;6.93;;;5.03;;
5199;SDS011;2619;47.868;11.892;2023-05-29T06:41:13;8.20;;;4.60;;
5199;SDS011;2619;47.868;11.892;2023-05-29T06:43:38;6.60;;;4.50;;
5199;SDS011;2619;47.868;11.892;2023-05-29T06:46:04;6.97;;;4.30;;
5199;SDS011;2619;47.868;11.892;2023-05-29T06:48:32;5.77;;;4.70;;
5199;SDS011;2619;47.868;11.892;2023-05-29T06:50:59;7.50;;;4.57;;
5199;SDS011;2619;47.868;11.892;2023-05-29T06:53:24;7.37;;;5.20;;
5199;SDS011;2619;47.868;11.892;2023-05-29T06:55:50;6.00;;;4.43;;
5199;SDS011;2619;47.868;11.892;2023-05-29T06:58:17;8.10;;;5.57;;
5199;SDS011;2619;47.868;11.892;2023-05-29T07:00:42;7.63;;;4.73;;
5199;SDS011;2619;47.868;11.892;2023-05-29T07:03:08;6.70;;;4.87;;
5199;SDS011;2619;47.868;11.892;2023-05-29T07:05:34;8.90;;;5.17;;
5199;SDS011;2619;47.868;11.892;2023-05-29T07:07:59;8.63;;;5.93;;
5199;SDS011;2619;47.868;11.892;2023-05-29T07:10:25;9.43;;;5.30;;
5199;SDS011;2619;47.868;11.892;2023-05-29T07:12:50;7.70;;;5.70;;
5199;SDS011;2619;47.868;11.892;2023-05-29T07:15:16;8.13;;;5.43;;
5199;SDS011;2619;47.868;11.892;2023-05-29T07:17:42;8.37;;;5.60;;
5199;SDS011;2619;47.868;11.892;2023-05-29T07:20:07;8.67;;;6.23;;
5199;SDS011;2619;47.868;11.892;2023-05-29T07:22:34;9.73;;;6.23;;
5199;SDS011;2619;47.868;11.892;2023-05-29T07:25:00;10.23;;;6.90;;
5199;SDS011;2619;47.868;11.892;2023-05-29T07:27:26;7.40;;;6.07;;
5199;SDS011;2619;47.868;11.892;2023-05-29T07:29:51;6.93;;;5.50;;
5199;SDS011;2619;47.868;11.892;2023-05-29T07:32:17;8.20;;;6.20;;
5199;SDS011;2619;47.868;11.892;2023-05-29T07:34:42;8.40;;;6.20;;
5199;SDS011;2619;47.868;11.892;2023-05-29T07:37:08;7.90;;;6.30;;
5199;SDS011;2619;47.868;11.892;2023-05-29T07:39:34;7.67;;;5.87;;
5199;SDS011;2619;47.868;11.892;2023-05-29T07:42:00;11.40;;;6.63;;
5199;SDS011;2619;47.868;11.892;2023-05-29T07:44:27;7.77;;;5.67;;
5199;SDS011;2619;47.868;11.892;2023-05-29T07:46:52;12.17;;;6.77;;
5199;SDS011;2619;47.868;11.892;2023-05-29T07:49:19;8.43;;;6.50;;
5199;SDS011;2619;47.868;11.892;2023-05-29T07:51:45;7.73;;;6.20;;
5199;SDS011;2619;47.868;11.892;2023-05-29T07:54:10;9.20;;;6.40;;
5199;SDS011;2619;47.868;11.892;2023-05-29T07:56:36;7.70;;;5.67;;
5199;SDS011;2619;47.868;11.892;2023-05-29T07:59:03;8.53;;;5.80;;
5199;SDS011;2619;47.868;11.892;2023-05-29T08:01:29;8.03;;;6.23;;
5199;SDS011;2619;47.868;11.892;2023-05-29T08:03:55;8.97;;;5.90;;
5199;SDS011;2619;47.868;11.892;2023-05-29T08:06:20;8.47;;;6.30;;
5199;SDS011;2619;47.868;11.892;2023-05-29T08:08:46;8.80;;;5.90;;
5199;SDS011;2619;47.868;11.892;2023-05-29T08:11:12;8.50;;;6.40;;
5199;SDS011;2619;47.868;11.892;2023-05-29T08:13:38;7.93;;;5.90;;
5199;SDS011;2619;47.868;11.892;2023-05-29T08:16:04;9.40;;;6.60;;
5199;SDS011;2619;47.868;11.892;2023-05-29T08:18:30;8.47;;;6.33;;
5199;SDS011;2619;47.868;11.892;2023-05-29T08:20:57;7.97;;;5.10;;
5199;SDS011;2619;47.868;11.892;2023-05-29T08:23:23;8.07;;;5.60;;
5199;SDS011;2619;47.868;11.892;2023-05-29T08:25:49;7.90;;;5.77;;
5199;SDS011;2619;47.868;11.892;2023-05-29T08:28:15;7.13;;;5.37;;
5199;SDS011;2619;47.868;11.892;2023-05-29T08:30:41;7.20;;;5.10;;
5199;SDS011;2619;47.868;11.892;2023-05-29T08:33:07;8.37;;;5.57;;
5199;SDS011;2619;47.868;11.892;2023-05-29T08:35:33;11.47;;;5.33;;
5199;SDS011;2619;47.868;11.892;2023-05-29T08:37:59;6.80;;;5.07;;
5199;SDS011;2619;47.868;11.892;2023-05-29T08:40:25;8.50;;;5.50;;
5199;SDS011;2619;47.868;11.892;2023-05-29T08:42:51;6.73;;;5.03;;
5199;SDS011;2619;47.868;11.892;2023-05-29T08:45:24;6.47;;;5.10;;
5199;SDS011;2619;47.868;11.892;2023-05-29T08:47:51;7.60;;;5.50;;
5199;SDS011;2619;47.868;11.892;2023-05-29T08:50:19;5.90;;;5.30;;
5199;SDS011;2619;47.868;11.892;2023-05-29T08:52:46;9.30;;;6.27;;
5199;SDS011;2619;47.868;11.892;2023-05-29T08:55:12;9.93;;;6.97;;
5199;SDS011;2619;47.868;11.892;2023-05-29T08:57:38;10.20;;;5.73;;
5199;SDS011;2619;47.868;11.892;2023-05-29T09:00:05;8.17;;;5.37;;
5199;SDS011;2619;47.868;11.892;2023-05-29T09:02:37;8.60;;;5.30;;
5199;SDS011;2619;47.868;11.892;2023-05-29T09:05:06;8.00;;;6.40;;
5199;SDS011;2619;47.868;11.892;2023-05-29T09:07:32;6.40;;;5.20;;
5199;SDS011;2619;47.868;11.892;2023-05-29T09:09:58;9.40;;;5.33;;
5199;SDS011;2619;47.868;11.892;2023-05-29T09:12:25;7.70;;;5.87;;
5199;SDS011;2619;47.868;11.892;2023-05-29T09:14:51;8.20;;;5.03;;
5199;SDS011;2619;47.868;11.892;2023-05-29T09:17:17;6.30;;;5.10;;
5199;SDS011;2619;47.868;11.892;2023-05-29T09:19:42;7.87;;;5.90;;
5199;SDS011;2619;47.868;11.892;2023-05-29T09:22:11;9.37;;;5.73;;
5199;SDS011;2619;47.868;11.892;2023-05-29T09:24:40;8.40;;;5.53;;
5199;SDS011;2619;47.868;11.892;2023-05-29T09:27:10;9.83;;;5.50;;
5199;SDS011;2619;47.868;11.892;2023-05-29T09:29:40;7.93;;;5.20;;
5199;SDS011;2619;47.868;11.892;2023-05-29T09:32:07;11.17;;;6.30;;
5199;SDS011;2619;47.868;11.892;2023-05-29T09:34:37;7.90;;;5.73;;
5199;SDS011;2619;47.868;11.892;2023-05-29T09:37:04;6.60;;;4.83;;
5199;SDS011;2619;47.868;11.892;2023-05-29T09:39:55;5.27;;;4.37;;
5199;SDS011;2619;47.868;11.892;2023-05-29T09:42:20;7.57;;;4.90;;
5199;SDS011;2619;47.868;11.892;2023-05-29T09:44:48;7.07;;;5.10;;
5199;SDS011;2619;47.868;11.892;2023-05-29T09:47:18;6.83;;;5.27;;
5199;SDS011;2619;47.868;11.892;2023-05-29T09:49:44;8.07;;;4.40;;
5199;SDS011;2619;47.868;11.892;2023-05-29T09:52:11;8.03;;;4.80;;
5199;SDS011;2619;47.868;11.892;2023-05-29T09:54:41;7.80;;;4.93;;
5199;SDS011;2619;47.868;11.892;2023-05-29T09:57:11;6.53;;;4.90;;
5199;SDS011;2619;47.868;11.892;2023-05-29T09:59:44;6.63;;;5.27;;
5199;SDS011;2619;47.868;11.892;2023-05-29T10:02:11;7.77;;;5.50;;
5199;SDS011;2619;47.868;11.892;2023-05-29T10:04:38;7.53;;;4.93;;
5199;SDS011;2619;47.868;11.892;2023-05-29T10:07:30;8.00;;;5.53;;
5199;SDS011;2619;47.868;11.892;2023-05-29T10:10:00;7.50;;;5.10;;
5199;SDS011;2619;47.868;11.892;2023-05-29T10:12:34;8.30;;;4.87;;
5199;SDS011;2619;47.868;11.892;2023-05-29T10:15:05;6.97;;;4.80;;
5199;SDS011;2619;47.868;11.892;2023-05-29T10:17:36;7.93;;;5.23;;
5199;SDS011;2619;47.868;11.892;2023-05-29T10:20:04;9.00;;;5.40;;
5199;SDS011;2619;47.868;11.892;2023-05-29T10:22:34;7.63;;;5.33;;
5199;SDS011;2619;47.868;11.892;2023-05-29T10:25:05;6.40;;;4.40;;
5199;SDS011;2619;47.868;11.892;2023-05-29T10:27:34;8.07;;;5.33;;
5199;SDS011;2619;47.868;11.892;2023-05-29T10:30:02;5.93;;;4.90;;
5199;SDS011;2619;47.868;11.892;2023-05-29T10:37:54;8.00;;;5.73;;
5199;SDS011;2619;47.868;11.892;2023-05-29T10:40:26;10.57;;;6.33;;
5199;SDS011;2619;47.868;11.892;2023-05-29T10:42:52;7.00;;;4.80;;
5199;SDS011;2619;47.868;11.892;2023-05-29T10:50:41;8.77;;;5.20;;
5199;SDS011;2619;47.868;11.892;2023-05-29T10:53:07;8.63;;;5.30;;
5199;SDS011;2619;47.868;11.892;2023-05-29T10:55:38;8.87;;;5.73;;
5199;SDS011;2619;47.868;11.892;2023-05-29T10:58:05;8.83;;;5.53;;
5199;SDS011;2619;47.868;11.892;2023-05-29T11:00:31;7.10;;;4.93;;
5199;SDS011;2619;47.868;11.892;2023-05-29T11:03:01;9.03;;;4.70;;
5199;SDS011;2619;47.868;11.892;2023-05-29T11:05:31;6.90;;;4.77;;
5199;SDS011;2619;47.868;11.892;2023-05-29T11:07:58;7.50;;;4.70;;
5199;SDS011;2619;47.868;11.892;2023-05-29T11:10:44;5.80;;;4.80;;
5199;SDS011;2619;47.868;11.892;2023-05-29T11:13:26;6.60;;;4.87;;
5199;SDS011;2619;47.868;11.892;2023-05-29T11:16:13;6.43;;;3.90;;
5199;SDS011;2619;47.868;11.892;2023-05-29T11:18:45;6.20;;;4.80;;
5199;SDS011;2619;47.868;11.892;2023-05-29T11:24:26;5.83;;;4.97;;
5199;SDS011;2619;47.868;11.892;2023-05-29T11:26:53;8.77;;;4.83;;
5199;SDS011;2619;47.868;11.892;2023-05-29T11:29:29;6.07;;;5.10;;
5199;SDS011;2619;47.868;11.892;2023-05-29T11:31:58;6.17;;;4.80;;
5199;SDS011;2619;47.868;11.892;2023-05-29T11:34:28;7.33;;;5.37;;
5199;SDS011;2619;47.868;11.892;2023-05-29T11:37:01;7.13;;;5.70;;
5199;SDS011;2619;47.868;11.892;2023-05-29T11:39:28;7.03;;;5.00;;
5199;SDS011;2619;47.868;11.892;2023-05-29T11:41:54;7.30;;;5.07;;
5199;SDS011;2619;47.868;11.892;2023-05-29T11:44:21;6.83;;;5.20;;
5199;SDS011;2619;47.868;11.892;2023-05-29T11:47:02;7.90;;;4.80;;
5199;SDS011;2619;47.868;11.892;2023-05-29T11:49:32;9.50;;;4.67;;
5199;SDS011;2619;47.868;11.892;2023-05-29T11:52:32;5.83;;;4.17;;
5199;SDS011;2619;47.868;11.892;2023-05-29T11:54:52;7.03;;;4.60;;
5199;SDS011;2619;47.868;11.892;2023-05-29T11:57:21;7.30;;;5.30;;
5199;SDS011;2619;47.868;11.892;2023-05-29T11:59:47;6.20;;;4.40;;
5199;SDS011;2619;47.868;11.892;2023-05-29T12:02:23;7.00;;;4.50;;
5199;SDS011;2619;47.868;11.892;2023-05-29T12:05:00;6.80;;;4.47;;
5199;SDS011;2619;47.868;11.892;2023-05-29T12:07:27;6.57;;;5.03;;
5199;SDS011;2619;47.868;11.892;2023-05-29T12:09:52;5.73;;;4.30;;
5199;SDS011;2619;47.868;11.892;2023-05-29T12:12:22;8.33;;;5.20;;
5199;SDS011;2619;47.868;11.892;2023-05-29T12:14:51;6.63;;;4.90;;
5199;SDS011;2619;47.868;11.892;2023-05-29T12:17:18;6.10;;;4.60;;
5199;SDS011;2619;47.868;11.892;2023-05-29T12:19:45;8.10;;;5.07;;
5199;SDS011;2619;47.868;11.892;2023-05-29T12:22:11;6.60;;;5.00;;
5199;SDS011;2619;47.868;11.892;2023-05-29T12:24:37;7.73;;;4.50;;
5199;SDS011;2619;47.868;11.892;2023-05-29T12:27:06;7.37;;;4.77;;
5199;SDS011;2619;47.868;11.892;2023-05-29T12:29:33;6.30;;;4.97;;
5199;SDS011;2619;47.868;11.892;2023-05-29T12:31:59;7.33;;;5.17;;
5199;SDS011;2619;47.868;11.892;2023-05-29T12:34:25;6.80;;;5.00;;
5199;SDS011;2619;47.868;11.892;2023-05-29T12:36:50;6.20;;;5.10;;
5199;SDS011;2619;47.868;11.892;2023-05-29T12:39:16;7.50;;;4.70;;
5199;SDS011;2619;47.868;11.892;2023-05-29T12:41:42;6.17;;;4.50;;
5199;SDS011;2619;47.868;11.892;2023-05-29T12:44:07;7.50;;;4.60;;
5199;SDS011;2619;47.868;11.892;2023-05-29T12:46:38;9.50;;;5.10;;
5199;SDS011;2619;47.868;11.892;2023-05-29T12:49:14;6.60;;;5.47;;
5199;SDS011;2619;47.868;11.892;2023-05-29T12:51:41;7.20;;;4.70;;
5199;SDS011;2619;47.868;11.892;2023-05-29T12:54:09;6.63;;;4.30;;
5199;SDS011;2619;47.868;11.892;2023-05-29T12:56:39;4.83;;;4.07;;
5199;SDS011;2619;47.868;11.892;2023-05-29T12:59:06;5.10;;;3.73;;
5199;SDS011;2619;47.868;11.892;2023-05-29T13:01:32;7.00;;;4.60;;
5199;SDS011;2619;47.868;11.892;2023-05-29T13:03:58;6.13;;;4.10;;
5199;SDS011;2619;47.868;11.892;2023-05-29T13:06:24;4.80;;;4.00;;
5199;SDS011;2619;47.868;11.892;2023-05-29T13:08:49;6.00;;;4.77;;
5199;SDS011;2619;47.868;11.892;2023-05-29T13:11:15;6.03;;;4.63;;
5199;SDS011;2619;47.868;11.892;2023-05-29T13:13:41;7.30;;;4.50;;
5199;SDS011;2619;47.868;11.892;2023-05-29T13:16:07;8.90;;;4.57;;
5199;SDS011;2619;47.868;11.892;2023-05-29T13:18:32;9.60;;;4.47;;
5199;SDS011;2619;47.868;11.892;2023-05-29T13:20:59;5.57;;;3.77;;
5199;SDS011;2619;47.868;11.892;2023-05-29T13:23:25;7.40;;;3.80;;
5199;SDS011;2619;47.868;11.892;2023-05-29T13:25:50;6.27;;;4.10;;
5199;SDS011;2619;47.868;11.892;2023-05-29T13:28:16;5.50;;;3.80;;
5199;SDS011;2619;47.868;11.892;2023-05-29T13:30:41;5.20;;;4.30;;
5199;SDS011;2619;47.868;11.892;2023-05-29T13:33:07;6.30;;;4.30;;
5199;SDS011;2619;47.868;11.892;2023-05-29T13:35:33;6.77;;;4.00;;
5199;SDS011;2619;47.868;11.892;2023-05-29T13:37:58;4.60;;;3.87;;
5199;SDS011;2619;47.868;11.892;2023-05-29T13:40:24;6.60;;;4.10;;
5199;SDS011;2619;47.868;11.892;2023-05-29T13:42:49;6.23;;;4.40;;
5199;SDS011;2619;47.868;11.892;2023-05-29T13:45:15;6.17;;;3.47;;
5199;SDS011;2619;47.868;11.892;2023-05-29T13:47:41;6.07;;;4.40;;
5199;SDS011;2619;47.868;11.892;2023-05-29T13:50:06;6.90;;;4.00;;
5199;SDS011;2619;47.868;11.892;2023-05-29T13:52:33;4.73;;;3.43;;
5199;SDS011;2619;47.868;11.892;2023-05-29T13:54:58;5.73;;;4.13;;
5199;SDS011;2619;47.868;11.892;2023-05-29T13:57:29;6.57;;;3.87;;
5199;SDS011;2619;47.868;11.892;2023-05-29T13:59:56;6.57;;;4.53;;
5199;SDS011;2619;47.868;11.892;2023-05-29T14:02:21;5.40;;;4.23;;
5199;SDS011;2619;47.868;11.892;2023-05-29T14:04:47;5.80;;;4.33;;
5199;SDS011;2619;47.868;11.892;2023-05-29T14:07:13;5.50;;;3.67;;
5199;SDS011;2619;47.868;11.892;2023-05-29T14:09:39;4.87;;;3.73;;
5199;SDS011;2619;47.868;11.892;2023-05-29T14:12:04;5.80;;;3.70;;
5199;SDS011;2619;47.868;11.892;2023-05-29T14:14:32;6.60;;;3.83;;
5199;SDS011;2619;47.868;11.892;2023-05-29T14:16:58;5.00;;;3.50;;
5199;SDS011;2619;47.868;11.892;2023-05-29T14:19:23;8.17;;;4.03;;
5199;SDS011;2619;47.868;11.892;2023-05-29T14:21:49;5.30;;;4.20;;
5199;SDS011;2619;47.868;11.892;2023-05-29T14:24:15;5.33;;;4.27;;
5199;SDS011;2619;47.868;11.892;2023-05-29T14:26:42;5.70;;;4.10;;
5199;SDS011;2619;47.868;11.892;2023-05-29T14:29:11;5.80;;;4.00;;
5199;SDS011;2619;47.868;11.892;2023-05-29T14:31:37;5.47;;;4.20;;
5199;SDS011;2619;47.868;11.892;2023-05-29T14:34:02;6.03;;;3.83;;
5199;SDS011;2619;47.868;11.892;2023-05-29T14:36:28;5.53;;;3.70;;
5199;SDS011;2619;47.868;11.892;2023-05-29T14:38:54;6.30;;;4.13;;
5199;SDS011;2619;47.868;11.892;2023-05-29T14:41:19;5.00;;;3.87;;
5199;SDS011;2619;47.868;11.892;2023-05-29T14:43:45;5.83;;;3.80;;
5199;SDS011;2619;47.868;11.892;2023-05-29T14:46:10;5.47;;;3.60;;
5199;SDS011;2619;47.868;11.892;2023-05-29T14:48:36;5.80;;;3.97;;
5199;SDS011;2619;47.868;11.892;2023-05-29T14:51:02;5.43;;;4.03;;
5199;SDS011;2619;47.868;11.892;2023-05-29T14:53:28;6.50;;;3.80;;
5199;SDS011;2619;47.868;11.892;2023-05-29T14:55:53;5.60;;;4.17;;
5199;SDS011;2619;47.868;11.892;2023-05-29T14:58:21;5.53;;;3.73;;
5199;SDS011;2619;47.868;11.892;2023-05-29T15:00:46;5.73;;;4.00;;
5199;SDS011;2619;47.868;11.892;2023-05-29T15:03:12;6.07;;;4.00;;
5199;SDS011;2619;47.868;11.892;2023-05-29T15:05:37;7.57;;;3.83;;
5199;SDS011;2619;47.868;11.892;2023-05-29T15:08:03;6.57;;;3.63;;
5199;SDS011;2619;47.868;11.892;2023-05-29T15:10:29;8.77;;;4.37;;
5199;SDS011;2619;47.868;11.892;2023-05-29T15:12:54;4.73;;;3.33;;
5199;SDS011;2619;47.868;11.892;2023-05-29T15:15:27;6.43;;;4.10;;
5199;SDS011;2619;47.868;11.892;2023-05-29T15:17:53;6.43;;;4.00;;